sensor_id;sensor_type;location;lat;lon;timestamp;temperature;humidity
9450;DHT22;4763;48.370;10.874;2023-08-06T00:01:00;15.70;99.90
9450;DHT22;4763;48.370;10.874;2023-08-06T00:03:27;15.80;99.90
9450;DHT22;4763;48.370;10.874;2023-08-06T00:05:55;15.70;99.90
9450;DHT22;4763;48.370;10.874;2023-08-06T00:08:22;15.70;99.90
9450;DHT22;4763;48.370;10.874;2023-08-06T00:10:48;15.60;99.90
9450;DHT22;4763;48.370;10.874;2023-08-06T00:13:15;15.60;99.90
9450;DHT22;4763;48.370;10.874;2023-08-06T00:15:42;15.60;99.90
9450;DHT22;4763;48.370;10.874;2023-08-06T00:18:11;15.50;99.90
9450;DHT22;4763;48.370;10.874;2023-08-06T00:20:42;15.40;99.90
9450;DHT22;4763;48.370;10.874;2023-08-06T00:23:10;15.40;99.90
9450;DHT22;4763;48.370;10.874;2023-08-06T00:25:37;15.50;99.90
9450;DHT22;4763;48.370;10.874;2023-08-06T00:28:04;15.40;99.90
9450;DHT22;4763;48.370;10.874;2023-08-06T00:30:31;15.40;99.90
9450;DHT22;4763;48.370;10.874;2023-08-06T00:32:58;15.40;99.90
9450;DHT22;4763;48.370;10.874;2023-08-06T00:35:24;15.30;99.90
9450;DHT22;4763;48.370;10.874;2023-08-06T00:37:51;15.40;99.90
9450;DHT22;4763;48.370;10.874;2023-08-06T00:40:21;15.40;99.90
9450;DHT22;4763;48.370;10.874;2023-08-06T00:42:48;15.30;99.90
9450;DHT22;4763;48.370;10.874;2023-08-06T00:45:18;15.30;99.90
9450;DHT22;4763;48.370;10.874;2023-08-06T00:47:45;15.10;99.90
9450;DHT22;4763;48.370;10.874;2023-08-06T00:50:12;15.20;99.90
9450;DHT22;4763;48.370;10.874;2023-08-06T00:52:39;15.20;99.90
9450;DHT22;4763;48.370;10.874;2023-08-06T00:55:07;15.20;99.90
9450;DHT22;4763;48.370;10.874;2023-08-06T00:57:35;15.20;99.90
9450;DHT22;4763;48.370;10.874;2023-08-06T01:00:03;15.20;99.90
9450;DHT22;4763;48.370;10.874;2023-08-06T01:02:30;15.30;99.90
9450;DHT22;4763;48.370;10.874;2023-08-06T01:04:57;15.20;99.90
9450;DHT22;4763;48.370;10.874;2023-08-06T01:07:33;15.20;99.90
9450;DHT22;4763;48.370;10.874;2023-08-06T01:10:27;15.20;99.90
9450;DHT22;4763;48.370;10.874;2023-08-06T01:13:05;15.20;99.90
9450;DHT22;4763;48.370;10.874;2023-08-06T01:15:38;15.20;99.90
9450;DHT22;4763;48.370;10.874;2023-08-06T01:18:07;15.20;99.90
9450;DHT22;4763;48.370;10.874;2023-08-06T01:20:35;15.20;99.90
9450;DHT22;4763;48.370;10.874;2023-08-06T01:23:02;15.20;99.90
9450;DHT22;4763;48.370;10.874;2023-08-06T01:25:32;15.20;99.90
9450;DHT22;4763;48.370;10.874;2023-08-06T01:28:05;15.20;99.90
9450;DHT22;4763;48.370;10.874;2023-08-06T01:30:34;15.20;99.90
9450;DHT22;4763;48.370;10.874;2023-08-06T01:33:04;15.10;99.90
9450;DHT22;4763;48.370;10.874;2023-08-06T01:35:32;15.00;99.90
9450;DHT22;4763;48.370;10.874;2023-08-06T01:38:04;15.10;99.90
9450;DHT22;4763;48.370;10.874;2023-08-06T01:40:30;15.00;99.90
9450;DHT22;4763;48.370;10.874;2023-08-06T01:42:58;14.90;99.90
9450;DHT22;4763;48.370;10.874;2023-08-06T01:45:25;14.90;99.90
9450;DHT22;4763;48.370;10.874;2023-08-06T01:47:52;15.00;99.90
9450;DHT22;4763;48.370;10.874;2023-08-06T01:50:18;14.90;99.90
9450;DHT22;4763;48.370;10.874;2023-08-06T01:52:45;14.90;99.90
9450;DHT22;4763;48.370;10.874;2023-08-06T01:55:14;14.90;99.90
9450;DHT22;4763;48.370;10.874;2023-08-06T01:57:40;14.80;99.90
9450;DHT22;4763;48.370;10.874;2023-08-06T02:00:08;14.80;99.90
9450;DHT22;4763;48.370;10.874;2023-08-06T02:02:35;14.80;99.90
9450;DHT22;4763;48.370;10.874;2023-08-06T02:05:01;14.80;99.90
9450;DHT22;4763;48.370;10.874;2023-08-06T02:07:28;14.90;99.90
9450;DHT22;4763;48.370;10.874;2023-08-06T02:09:55;14.80;99.90
9450;DHT22;4763;48.370;10.874;2023-08-06T02:12:23;14.80;99.90
9450;DHT22;4763;48.370;10.874;2023-08-06T02:14:50;14.80;99.90
9450;DHT22;4763;48.370;10.874;2023-08-06T02:17:17;14.80;99.90
9450;DHT22;4763;48.370;10.874;2023-08-06T02:19:44;14.80;99.90
9450;DHT22;4763;48.370;10.874;2023-08-06T02:22:11;14.80;99.90
9450;DHT22;4763;48.370;10.874;2023-08-06T02:24:37;14.80;99.90
9450;DHT22;4763;48.370;10.874;2023-08-06T02:27:04;14.70;99.90
9450;DHT22;4763;48.370;10.874;2023-08-06T02:29:33;14.70;99.90
9450;DHT22;4763;48.370;10.874;2023-08-06T02:31:59;14.70;99.90
9450;DHT22;4763;48.370;10.874;2023-08-06T02:34:27;14.70;99.90
9450;DHT22;4763;48.370;10.874;2023-08-06T02:36:54;14.80;99.90
9450;DHT22;4763;48.370;10.874;2023-08-06T02:39:21;14.80;99.90
9450;DHT22;4763;48.370;10.874;2023-08-06T02:41:48;14.70;99.90
9450;DHT22;4763;48.370;10.874;2023-08-06T02:44:15;14.70;99.90
9450;DHT22;4763;48.370;10.874;2023-08-06T02:46:44;14.70;99.90
9450;DHT22;4763;48.370;10.874;2023-08-06T02:49:11;14.60;99.90
9450;DHT22;4763;48.370;10.874;2023-08-06T02:51:37;14.60;99.90
9450;DHT22;4763;48.370;10.874;2023-08-06T02:54:04;14.60;99.90
9450;DHT22;4763;48.370;10.874;2023-08-06T02:56:31;14.60;99.90
9450;DHT22;4763;48.370;10.874;2023-08-06T02:58:58;14.70;99.90
9450;DHT22;4763;48.370;10.874;2023-08-06T03:01:25;14.60;99.90
9450;DHT22;4763;48.370;10.874;2023-08-06T03:03:55;14.50;99.90
9450;DHT22;4763;48.370;10.874;2023-08-06T03:06:22;14.50;99.90
9450;DHT22;4763;48.370;10.874;2023-08-06T03:08:49;14.50;99.90
9450;DHT22;4763;48.370;10.874;2023-08-06T03:11:15;14.50;99.90
9450;DHT22;4763;48.370;10.874;2023-08-06T03:13:42;14.50;99.90
9450;DHT22;4763;48.370;10.874;2023-08-06T03:16:09;14.50;99.90
9450;DHT22;4763;48.370;10.874;2023-08-06T03:18:36;14.50;99.90
9450;DHT22;4763;48.370;10.874;2023-08-06T03:21:04;14.50;99.90
9450;DHT22;4763;48.370;10.874;2023-08-06T03:23:34;14.40;99.90
9450;DHT22;4763;48.370;10.874;2023-08-06T03:26:01;14.50;99.90
9450;DHT22;4763;48.370;10.874;2023-08-06T03:28:28;14.50;99.90
9450;DHT22;4763;48.370;10.874;2023-08-06T03:31:02;14.50;99.90
9450;DHT22;4763;48.370;10.874;2023-08-06T03:33:29;14.50;99.90
9450;DHT22;4763;48.370;10.874;2023-08-06T03:35:56;14.50;99.90
9450;DHT22;4763;48.370;10.874;2023-08-06T03:38:24;14.50;99.90
9450;DHT22;4763;48.370;10.874;2023-08-06T03:40:51;14.50;99.90
9450;DHT22;4763;48.370;10.874;2023-08-06T03:43:18;14.40;99.90
9450;DHT22;4763;48.370;10.874;2023-08-06T03:45:45;14.40;99.90
9450;DHT22;4763;48.370;10.874;2023-08-06T03:48:11;14.40;99.90
9450;DHT22;4763;48.370;10.874;2023-08-06T03:50:38;14.40;99.90
9450;DHT22;4763;48.370;10.874;2023-08-06T03:53:05;14.40;99.90
9450;DHT22;4763;48.370;10.874;2023-08-06T03:55:33;14.30;99.90
9450;DHT22;4763;48.370;10.874;2023-08-06T03:58:00;14.30;99.90
9450;DHT22;4763;48.370;10.874;2023-08-06T04:00:27;14.30;99.90
9450;DHT22;4763;48.370;10.874;2023-08-06T04:02:54;14.20;99.90
9450;DHT22;4763;48.370;10.874;2023-08-06T04:05:21;14.20;99.90
9450;DHT22;4763;48.370;10.874;2023-08-06T04:07:47;14.30;99.90
9450;DHT22;4763;48.370;10.874;2023-08-06T04:10:14;14.30;99.90
9450;DHT22;4763;48.370;10.874;2023-08-06T04:12:43;14.40;99.90
9450;DHT22;4763;48.370;10.874;2023-08-06T04:15:09;14.30;99.90
9450;DHT22;4763;48.370;10.874;2023-08-06T04:17:36;14.30;99.90
9450;DHT22;4763;48.370;10.874;2023-08-06T04:20:04;14.30;99.90
9450;DHT22;4763;48.370;10.874;2023-08-06T04:22:31;14.30;99.90
9450;DHT22;4763;48.370;10.874;2023-08-06T04:24:58;14.40;99.90
9450;DHT22;4763;48.370;10.874;2023-08-06T04:27:25;14.40;99.90
9450;DHT22;4763;48.370;10.874;2023-08-06T04:29:53;14.30;99.90
9450;DHT22;4763;48.370;10.874;2023-08-06T04:32:20;14.40;99.90
9450;DHT22;4763;48.370;10.874;2023-08-06T04:34:47;14.30;99.90
9450;DHT22;4763;48.370;10.874;2023-08-06T04:37:13;14.30;99.90
9450;DHT22;4763;48.370;10.874;2023-08-06T04:39:40;14.40;99.90
9450;DHT22;4763;48.370;10.874;2023-08-06T04:42:07;14.30;99.90
9450;DHT22;4763;48.370;10.874;2023-08-06T04:44:34;14.40;99.90
9450;DHT22;4763;48.370;10.874;2023-08-06T04:47:02;14.50;99.90
9450;DHT22;4763;48.370;10.874;2023-08-06T04:49:29;14.40;99.90
9450;DHT22;4763;48.370;10.874;2023-08-06T04:51:56;14.40;99.90
9450;DHT22;4763;48.370;10.874;2023-08-06T04:54:23;14.30;99.90
9450;DHT22;4763;48.370;10.874;2023-08-06T04:56:49;14.30;99.90
9450;DHT22;4763;48.370;10.874;2023-08-06T04:59:16;14.30;99.90
9450;DHT22;4763;48.370;10.874;2023-08-06T05:01:43;14.40;99.90
9450;DHT22;4763;48.370;10.874;2023-08-06T05:04:11;14.30;99.90
9450;DHT22;4763;48.370;10.874;2023-08-06T05:06:38;14.30;99.90
9450;DHT22;4763;48.370;10.874;2023-08-06T05:09:05;14.40;99.90
9450;DHT22;4763;48.370;10.874;2023-08-06T05:11:35;14.40;99.90
9450;DHT22;4763;48.370;10.874;2023-08-06T05:14:02;14.40;99.90
9450;DHT22;4763;48.370;10.874;2023-08-06T05:16:29;14.40;99.90
9450;DHT22;4763;48.370;10.874;2023-08-06T05:18:56;14.50;99.90
9450;DHT22;4763;48.370;10.874;2023-08-06T05:21:24;14.40;99.90
9450;DHT22;4763;48.370;10.874;2023-08-06T05:23:53;14.40;99.90
9450;DHT22;4763;48.370;10.874;2023-08-06T05:26:20;14.40;99.90
9450;DHT22;4763;48.370;10.874;2023-08-06T05:28:46;14.40;99.90
9450;DHT22;4763;48.370;10.874;2023-08-06T05:31:13;14.40;99.90
9450;DHT22;4763;48.370;10.874;2023-08-06T05:33:43;14.50;99.90
9450;DHT22;4763;48.370;10.874;2023-08-06T05:36:10;14.40;99.90
9450;DHT22;4763;48.370;10.874;2023-08-06T05:38:41;14.40;99.90
9450;DHT22;4763;48.370;10.874;2023-08-06T05:41:07;14.40;99.90
9450;DHT22;4763;48.370;10.874;2023-08-06T05:43:34;14.50;99.90
9450;DHT22;4763;48.370;10.874;2023-08-06T05:46:01;14.50;99.90
9450;DHT22;4763;48.370;10.874;2023-08-06T05:48:28;14.60;99.90
9450;DHT22;4763;48.370;10.874;2023-08-06T05:50:57;14.70;99.90
9450;DHT22;4763;48.370;10.874;2023-08-06T05:53:24;14.70;99.90
9450;DHT22;4763;48.370;10.874;2023-08-06T05:55:53;14.90;99.90
9450;DHT22;4763;48.370;10.874;2023-08-06T05:58:20;14.90;99.90
9450;DHT22;4763;48.370;10.874;2023-08-06T06:00:46;15.00;99.90
9450;DHT22;4763;48.370;10.874;2023-08-06T06:03:13;15.10;99.90
9450;DHT22;4763;48.370;10.874;2023-08-06T06:05:40;15.10;99.90
9450;DHT22;4763;48.370;10.874;2023-08-06T06:08:10;15.20;99.90
9450;DHT22;4763;48.370;10.874;2023-08-06T06:10:36;15.40;99.90
9450;DHT22;4763;48.370;10.874;2023-08-06T06:13:04;15.50;99.90
9450;DHT22;4763;48.370;10.874;2023-08-06T06:15:32;15.60;99.90
9450;DHT22;4763;48.370;10.874;2023-08-06T06:17:59;15.80;99.90
9450;DHT22;4763;48.370;10.874;2023-08-06T06:20:29;15.90;99.90
9450;DHT22;4763;48.370;10.874;2023-08-06T06:22:58;16.00;99.90
9450;DHT22;4763;48.370;10.874;2023-08-06T06:25:25;16.00;99.90
9450;DHT22;4763;48.370;10.874;2023-08-06T06:27:58;16.00;99.90
9450;DHT22;4763;48.370;10.874;2023-08-06T06:30:27;15.90;99.90
9450;DHT22;4763;48.370;10.874;2023-08-06T06:32:55;15.80;99.90
9450;DHT22;4763;48.370;10.874;2023-08-06T06:35:21;15.60;99.90
9450;DHT22;4763;48.370;10.874;2023-08-06T06:37:48;15.50;99.90
9450;DHT22;4763;48.370;10.874;2023-08-06T06:40:16;15.30;99.90
9450;DHT22;4763;48.370;10.874;2023-08-06T06:42:49;15.20;99.90
9450;DHT22;4763;48.370;10.874;2023-08-06T06:45:26;15.20;99.90
9450;DHT22;4763;48.370;10.874;2023-08-06T06:48:13;15.20;99.90
9450;DHT22;4763;48.370;10.874;2023-08-06T06:50:41;15.10;99.90
9450;DHT22;4763;48.370;10.874;2023-08-06T06:53:08;15.10;99.90
9450;DHT22;4763;48.370;10.874;2023-08-06T06:55:35;15.10;99.90
9450;DHT22;4763;48.370;10.874;2023-08-06T06:58:02;15.20;99.90
9450;DHT22;4763;48.370;10.874;2023-08-06T07:00:29;15.20;99.90
9450;DHT22;4763;48.370;10.874;2023-08-06T07:02:56;15.20;99.90
9450;DHT22;4763;48.370;10.874;2023-08-06T07:05:24;15.30;99.90
9450;DHT22;4763;48.370;10.874;2023-08-06T07:07:52;15.30;99.90
9450;DHT22;4763;48.370;10.874;2023-08-06T07:10:19;15.30;99.90
9450;DHT22;4763;48.370;10.874;2023-08-06T07:12:45;15.40;99.90
9450;DHT22;4763;48.370;10.874;2023-08-06T07:15:12;15.60;99.90
9450;DHT22;4763;48.370;10.874;2023-08-06T07:17:39;15.60;99.90
9450;DHT22;4763;48.370;10.874;2023-08-06T07:20:07;15.70;99.90
9450;DHT22;4763;48.370;10.874;2023-08-06T07:22:35;15.80;99.90
9450;DHT22;4763;48.370;10.874;2023-08-06T07:25:02;15.90;99.90
9450;DHT22;4763;48.370;10.874;2023-08-06T07:27:29;16.00;99.90
9450;DHT22;4763;48.370;10.874;2023-08-06T07:29:56;16.00;99.90
9450;DHT22;4763;48.370;10.874;2023-08-06T07:32:24;15.90;99.90
9450;DHT22;4763;48.370;10.874;2023-08-06T07:34:50;15.90;99.90
9450;DHT22;4763;48.370;10.874;2023-08-06T07:37:22;15.80;99.90
9450;DHT22;4763;48.370;10.874;2023-08-06T07:39:50;15.90;99.90
9450;DHT22;4763;48.370;10.874;2023-08-06T07:42:17;15.90;99.90
9450;DHT22;4763;48.370;10.874;2023-08-06T07:44:51;16.00;99.90
9450;DHT22;4763;48.370;10.874;2023-08-06T07:47:18;16.10;99.90
9450;DHT22;4763;48.370;10.874;2023-08-06T07:49:44;16.10;99.90
9450;DHT22;4763;48.370;10.874;2023-08-06T07:52:11;16.30;99.90
9450;DHT22;4763;48.370;10.874;2023-08-06T07:54:38;16.30;99.90
9450;DHT22;4763;48.370;10.874;2023-08-06T07:57:07;16.40;99.90
9450;DHT22;4763;48.370;10.874;2023-08-06T07:59:34;16.50;99.90
9450;DHT22;4763;48.370;10.874;2023-08-06T08:02:01;16.60;99.90
9450;DHT22;4763;48.370;10.874;2023-08-06T08:04:27;16.60;99.90
9450;DHT22;4763;48.370;10.874;2023-08-06T08:06:54;16.60;99.90
9450;DHT22;4763;48.370;10.874;2023-08-06T08:09:24;16.50;99.90
9450;DHT22;4763;48.370;10.874;2023-08-06T08:11:51;16.40;99.90
9450;DHT22;4763;48.370;10.874;2023-08-06T08:14:19;16.30;99.90
9450;DHT22;4763;48.370;10.874;2023-08-06T08:16:46;16.20;99.90
9450;DHT22;4763;48.370;10.874;2023-08-06T08:19:13;16.10;99.90
9450;DHT22;4763;48.370;10.874;2023-08-06T08:21:39;16.00;99.90
9450;DHT22;4763;48.370;10.874;2023-08-06T08:24:06;15.90;99.90
9450;DHT22;4763;48.370;10.874;2023-08-06T08:26:33;15.90;99.90
9450;DHT22;4763;48.370;10.874;2023-08-06T08:29:00;16.00;99.90
9450;DHT22;4763;48.370;10.874;2023-08-06T08:31:28;16.10;99.90
9450;DHT22;4763;48.370;10.874;2023-08-06T08:33:55;16.30;99.90
9450;DHT22;4763;48.370;10.874;2023-08-06T08:36:22;16.40;99.90
9450;DHT22;4763;48.370;10.874;2023-08-06T08:38:48;16.50;99.90
9450;DHT22;4763;48.370;10.874;2023-08-06T08:41:20;16.50;99.90
9450;DHT22;4763;48.370;10.874;2023-08-06T08:43:47;16.60;99.90
9450;DHT22;4763;48.370;10.874;2023-08-06T08:46:16;16.70;99.90
9450;DHT22;4763;48.370;10.874;2023-08-06T08:48:45;16.60;99.90
9450;DHT22;4763;48.370;10.874;2023-08-06T08:51:15;16.50;99.90
9450;DHT22;4763;48.370;10.874;2023-08-06T08:53:44;16.40;99.90
9450;DHT22;4763;48.370;10.874;2023-08-06T08:56:13;16.20;99.90
9450;DHT22;4763;48.370;10.874;2023-08-06T08:58:40;16.00;99.90
9450;DHT22;4763;48.370;10.874;2023-08-06T09:01:09;15.90;99.90
9450;DHT22;4763;48.370;10.874;2023-08-06T09:03:36;15.90;99.90
9450;DHT22;4763;48.370;10.874;2023-08-06T09:06:04;16.10;99.90
9450;DHT22;4763;48.370;10.874;2023-08-06T09:08:36;16.40;99.90
9450;DHT22;4763;48.370;10.874;2023-08-06T09:11:05;16.30;99.90
9450;DHT22;4763;48.370;10.874;2023-08-06T09:13:31;16.10;99.90
9450;DHT22;4763;48.370;10.874;2023-08-06T09:15:58;16.10;99.90
9450;DHT22;4763;48.370;10.874;2023-08-06T09:18:25;16.00;99.90
9450;DHT22;4763;48.370;10.874;2023-08-06T09:20:53;15.90;99.90
9450;DHT22;4763;48.370;10.874;2023-08-06T09:23:27;16.00;99.90
9450;DHT22;4763;48.370;10.874;2023-08-06T09:25:55;15.80;99.90
9450;DHT22;4763;48.370;10.874;2023-08-06T09:28:21;15.60;99.90
9450;DHT22;4763;48.370;10.874;2023-08-06T09:30:50;15.60;99.90
9450;DHT22;4763;48.370;10.874;2023-08-06T09:33:18;15.60;99.90
9450;DHT22;4763;48.370;10.874;2023-08-06T09:35:46;15.80;99.90
9450;DHT22;4763;48.370;10.874;2023-08-06T09:38:13;16.00;99.90
9450;DHT22;4763;48.370;10.874;2023-08-06T09:40:44;15.90;99.90
9450;DHT22;4763;48.370;10.874;2023-08-06T09:43:11;15.90;99.90
9450;DHT22;4763;48.370;10.874;2023-08-06T09:45:39;15.80;99.90
9450;DHT22;4763;48.370;10.874;2023-08-06T09:48:07;15.60;99.90
9450;DHT22;4763;48.370;10.874;2023-08-06T09:50:35;15.60;99.90
9450;DHT22;4763;48.370;10.874;2023-08-06T09:53:03;15.70;99.90
9450;DHT22;4763;48.370;10.874;2023-08-06T09:55:30;15.90;99.90
9450;DHT22;4763;48.370;10.874;2023-08-06T09:58:00;16.10;99.90
9450;DHT22;4763;48.370;10.874;2023-08-06T10:00:27;16.50;99.90
9450;DHT22;4763;48.370;10.874;2023-08-06T10:03:00;16.90;99.90
9450;DHT22;4763;48.370;10.874;2023-08-06T10:05:27;16.90;99.90
9450;DHT22;4763;48.370;10.874;2023-08-06T10:07:55;16.90;99.90
9450;DHT22;4763;48.370;10.874;2023-08-06T10:10:24;16.90;99.90
9450;DHT22;4763;48.370;10.874;2023-08-06T10:12:54;16.80;99.90
9450;DHT22;4763;48.370;10.874;2023-08-06T10:15:26;16.90;99.90
9450;DHT22;4763;48.370;10.874;2023-08-06T10:17:55;16.70;99.90
9450;DHT22;4763;48.370;10.874;2023-08-06T10:20:23;16.60;99.90
9450;DHT22;4763;48.370;10.874;2023-08-06T10:23:00;16.30;99.90
9450;DHT22;4763;48.370;10.874;2023-08-06T10:25:30;16.10;99.90
9450;DHT22;4763;48.370;10.874;2023-08-06T10:27:58;15.90;99.90
9450;DHT22;4763;48.370;10.874;2023-08-06T10:30:27;16.00;99.90
9450;DHT22;4763;48.370;10.874;2023-08-06T10:32:56;15.90;99.90
9450;DHT22;4763;48.370;10.874;2023-08-06T10:35:34;15.80;99.90
9450;DHT22;4763;48.370;10.874;2023-08-06T10:38:05;15.70;99.90
9450;DHT22;4763;48.370;10.874;2023-08-06T10:40:33;15.60;99.90
9450;DHT22;4763;48.370;10.874;2023-08-06T10:43:00;15.50;99.90
9450;DHT22;4763;48.370;10.874;2023-08-06T10:45:29;15.40;99.90
9450;DHT22;4763;48.370;10.874;2023-08-06T10:47:56;15.50;99.90
9450;DHT22;4763;48.370;10.874;2023-08-06T10:50:24;15.50;99.90
9450;DHT22;4763;48.370;10.874;2023-08-06T10:52:51;15.80;99.90
9450;DHT22;4763;48.370;10.874;2023-08-06T10:55:25;15.80;99.90
9450;DHT22;4763;48.370;10.874;2023-08-06T10:57:53;15.60;99.90
9450;DHT22;4763;48.370;10.874;2023-08-06T11:00:21;15.60;99.90
9450;DHT22;4763;48.370;10.874;2023-08-06T11:02:51;15.60;99.90
9450;DHT22;4763;48.370;10.874;2023-08-06T11:05:18;15.70;99.90
9450;DHT22;4763;48.370;10.874;2023-08-06T11:07:46;15.60;99.90
9450;DHT22;4763;48.370;10.874;2023-08-06T11:10:14;15.80;99.90
9450;DHT22;4763;48.370;10.874;2023-08-06T11:12:41;16.20;99.90
9450;DHT22;4763;48.370;10.874;2023-08-06T11:15:09;16.50;99.90
9450;DHT22;4763;48.370;10.874;2023-08-06T11:17:37;16.50;99.90
9450;DHT22;4763;48.370;10.874;2023-08-06T11:20:08;16.60;99.90
9450;DHT22;4763;48.370;10.874;2023-08-06T11:22:36;16.60;99.90
9450;DHT22;4763;48.370;10.874;2023-08-06T11:25:04;16.30;99.90
9450;DHT22;4763;48.370;10.874;2023-08-06T11:27:31;16.30;99.90
9450;DHT22;4763;48.370;10.874;2023-08-06T11:29:59;16.40;99.90
9450;DHT22;4763;48.370;10.874;2023-08-06T11:32:25;16.50;99.90
9450;DHT22;4763;48.370;10.874;2023-08-06T11:34:53;16.70;99.90
9450;DHT22;4763;48.370;10.874;2023-08-06T11:37:23;16.70;99.90
9450;DHT22;4763;48.370;10.874;2023-08-06T11:39:52;16.90;99.90
9450;DHT22;4763;48.370;10.874;2023-08-06T11:42:19;16.60;99.90
9450;DHT22;4763;48.370;10.874;2023-08-06T11:44:46;16.60;99.90
9450;DHT22;4763;48.370;10.874;2023-08-06T11:47:15;16.50;99.90
9450;DHT22;4763;48.370;10.874;2023-08-06T11:49:46;16.50;99.90
9450;DHT22;4763;48.370;10.874;2023-08-06T11:52:16;16.70;99.90
9450;DHT22;4763;48.370;10.874;2023-08-06T11:54:46;16.60;99.90
9450;DHT22;4763;48.370;10.874;2023-08-06T11:57:16;16.40;99.90
9450;DHT22;4763;48.370;10.874;2023-08-06T11:59:43;16.20;99.90
9450;DHT22;4763;48.370;10.874;2023-08-06T12:02:10;16.20;99.90
9450;DHT22;4763;48.370;10.874;2023-08-06T12:05:03;16.30;99.90
9450;DHT22;4763;48.370;10.874;2023-08-06T12:07:31;16.50;99.90
9450;DHT22;4763;48.370;10.874;2023-08-06T12:10:00;16.70;99.90
9450;DHT22;4763;48.370;10.874;2023-08-06T12:12:27;16.90;99.90
9450;DHT22;4763;48.370;10.874;2023-08-06T12:14:54;16.80;99.90
9450;DHT22;4763;48.370;10.874;2023-08-06T12:17:21;16.60;99.90
9450;DHT22;4763;48.370;10.874;2023-08-06T12:19:48;16.40;99.90
9450;DHT22;4763;48.370;10.874;2023-08-06T12:22:15;16.10;99.90
9450;DHT22;4763;48.370;10.874;2023-08-06T12:24:45;15.90;99.90
9450;DHT22;4763;48.370;10.874;2023-08-06T12:27:13;15.90;99.90
9450;DHT22;4763;48.370;10.874;2023-08-06T12:29:43;15.90;99.90
9450;DHT22;4763;48.370;10.874;2023-08-06T12:32:10;15.80;99.90
9450;DHT22;4763;48.370;10.874;2023-08-06T12:34:38;15.70;99.90
9450;DHT22;4763;48.370;10.874;2023-08-06T12:37:05;15.70;99.90
9450;DHT22;4763;48.370;10.874;2023-08-06T12:39:34;15.70;99.90
9450;DHT22;4763;48.370;10.874;2023-08-06T12:42:01;16.00;99.90
9450;DHT22;4763;48.370;10.874;2023-08-06T12:44:29;16.20;99.90
9450;DHT22;4763;48.370;10.874;2023-08-06T12:46:58;16.60;99.90
9450;DHT22;4763;48.370;10.874;2023-08-06T12:49:25;16.80;99.90
9450;DHT22;4763;48.370;10.874;2023-08-06T12:51:52;16.80;99.90
9450;DHT22;4763;48.370;10.874;2023-08-06T12:54:20;16.80;99.90
9450;DHT22;4763;48.370;10.874;2023-08-06T12:56:47;16.60;99.90
9450;DHT22;4763;48.370;10.874;2023-08-06T12:59:15;16.50;99.90
9450;DHT22;4763;48.370;10.874;2023-08-06T13:01:44;16.40;99.90
9450;DHT22;4763;48.370;10.874;2023-08-06T13:04:11;16.20;99.90
9450;DHT22;4763;48.370;10.874;2023-08-06T13:06:38;16.20;99.90
9450;DHT22;4763;48.370;10.874;2023-08-06T13:09:05;16.20;99.90
9450;DHT22;4763;48.370;10.874;2023-08-06T13:11:33;15.90;99.90
9450;DHT22;4763;48.370;10.874;2023-08-06T13:14:05;15.90;99.90
9450;DHT22;4763;48.370;10.874;2023-08-06T13:16:32;15.80;99.90
9450;DHT22;4763;48.370;10.874;2023-08-06T13:19:00;15.60;99.90
9450;DHT22;4763;48.370;10.874;2023-08-06T13:21:33;15.60;99.90
9450;DHT22;4763;48.370;10.874;2023-08-06T13:24:03;15.60;99.90
9450;DHT22;4763;48.370;10.874;2023-08-06T13:26:30;15.50;99.90
9450;DHT22;4763;48.370;10.874;2023-08-06T13:28:58;15.40;99.90
9450;DHT22;4763;48.370;10.874;2023-08-06T13:31:28;15.70;99.90
9450;DHT22;4763;48.370;10.874;2023-08-06T13:33:56;16.00;99.90
9450;DHT22;4763;48.370;10.874;2023-08-06T13:36:25;16.20;99.90
9450;DHT22;4763;48.370;10.874;2023-08-06T13:38:52;16.20;99.90
9450;DHT22;4763;48.370;10.874;2023-08-06T13:41:19;15.90;99.90
9450;DHT22;4763;48.370;10.874;2023-08-06T13:43:46;15.70;99.90
9450;DHT22;4763;48.370;10.874;2023-08-06T13:46:13;15.60;99.90
9450;DHT22;4763;48.370;10.874;2023-08-06T13:48:41;15.50;99.90
9450;DHT22;4763;48.370;10.874;2023-08-06T13:51:09;15.40;99.90
9450;DHT22;4763;48.370;10.874;2023-08-06T13:53:37;15.30;99.90
9450;DHT22;4763;48.370;10.874;2023-08-06T13:56:04;15.30;99.90
9450;DHT22;4763;48.370;10.874;2023-08-06T13:58:32;15.30;99.90
9450;DHT22;4763;48.370;10.874;2023-08-06T14:00:58;15.30;99.90
9450;DHT22;4763;48.370;10.874;2023-08-06T14:03:25;15.60;99.90
9450;DHT22;4763;48.370;10.874;2023-08-06T14:05:52;16.00;99.90
9450;DHT22;4763;48.370;10.874;2023-08-06T14:08:21;16.00;99.90
9450;DHT22;4763;48.370;10.874;2023-08-06T14:10:50;15.90;99.90
9450;DHT22;4763;48.370;10.874;2023-08-06T14:13:17;15.80;99.90
9450;DHT22;4763;48.370;10.874;2023-08-06T14:15:44;15.80;99.90
9450;DHT22;4763;48.370;10.874;2023-08-06T14:18:13;15.60;99.90
9450;DHT22;4763;48.370;10.874;2023-08-06T14:20:40;15.50;99.90
9450;DHT22;4763;48.370;10.874;2023-08-06T14:23:07;15.50;99.90
9450;DHT22;4763;48.370;10.874;2023-08-06T14:25:34;15.40;99.90
9450;DHT22;4763;48.370;10.874;2023-08-06T14:28:03;15.40;99.90
9450;DHT22;4763;48.370;10.874;2023-08-06T14:30:31;15.40;99.90
9450;DHT22;4763;48.370;10.874;2023-08-06T14:32:58;15.40;99.90
9450;DHT22;4763;48.370;10.874;2023-08-06T14:35:26;15.40;99.90
9450;DHT22;4763;48.370;10.874;2023-08-06T14:37:52;15.40;99.90
9450;DHT22;4763;48.370;10.874;2023-08-06T14:40:19;15.40;99.90
9450;DHT22;4763;48.370;10.874;2023-08-06T14:42:46;15.30;99.90
9450;DHT22;4763;48.370;10.874;2023-08-06T14:45:14;15.20;99.90
9450;DHT22;4763;48.370;10.874;2023-08-06T14:47:41;15.30;99.90
9450;DHT22;4763;48.370;10.874;2023-08-06T14:50:08;15.20;99.90
9450;DHT22;4763;48.370;10.874;2023-08-06T14:52:35;15.30;99.90
9450;DHT22;4763;48.370;10.874;2023-08-06T14:55:02;15.30;99.90
9450;DHT22;4763;48.370;10.874;2023-08-06T14:57:29;15.40;99.90
9450;DHT22;4763;48.370;10.874;2023-08-06T14:59:56;15.50;99.90
9450;DHT22;4763;48.370;10.874;2023-08-06T15:02:25;15.40;99.90
9450;DHT22;4763;48.370;10.874;2023-08-06T15:04:52;15.40;99.90
9450;DHT22;4763;48.370;10.874;2023-08-06T15:07:19;15.40;99.90
9450;DHT22;4763;48.370;10.874;2023-08-06T15:09:46;15.40;99.90
9450;DHT22;4763;48.370;10.874;2023-08-06T15:12:12;15.40;99.90
9450;DHT22;4763;48.370;10.874;2023-08-06T15:14:40;15.50;99.90
9450;DHT22;4763;48.370;10.874;2023-08-06T15:17:07;15.40;99.90
9450;DHT22;4763;48.370;10.874;2023-08-06T15:19:35;15.40;99.90
9450;DHT22;4763;48.370;10.874;2023-08-06T15:22:03;15.30;99.90
9450;DHT22;4763;48.370;10.874;2023-08-06T15:24:30;15.30;99.90
9450;DHT22;4763;48.370;10.874;2023-08-06T15:26:56;15.20;99.90
9450;DHT22;4763;48.370;10.874;2023-08-06T15:29:23;15.20;99.90
9450;DHT22;4763;48.370;10.874;2023-08-06T15:31:50;15.20;99.90
9450;DHT22;4763;48.370;10.874;2023-08-06T15:34:16;15.10;99.90
9450;DHT22;4763;48.370;10.874;2023-08-06T15:36:46;15.10;99.90
9450;DHT22;4763;48.370;10.874;2023-08-06T15:39:13;15.20;99.90
9450;DHT22;4763;48.370;10.874;2023-08-06T15:41:39;15.10;99.90
9450;DHT22;4763;48.370;10.874;2023-08-06T15:44:06;15.10;99.90
9450;DHT22;4763;48.370;10.874;2023-08-06T15:46:33;15.30;99.90
9450;DHT22;4763;48.370;10.874;2023-08-06T15:49:01;15.20;99.90